createdAt,value
2022-10-13T00:01:24.074Z,7.72
2022-10-13T00:03:51.637Z,7.74
2022-10-13T00:06:23.240Z,7.73
2022-10-13T00:08:51.109Z,7.72
2022-10-13T00:11:25.050Z,7.74
2022-10-13T00:13:57.547Z,7.75
2022-10-13T00:16:24.803Z,7.72
2022-10-13T00:18:52.601Z,7.76
2022-10-13T00:21:26.988Z,7.73
2022-10-13T00:23:55.400Z,7.74
2022-10-13T00:26:26.643Z,7.71
2022-10-13T00:28:56.688Z,7.71
2022-10-13T00:31:31.772Z,7.70
2022-10-13T00:34:03.629Z,7.70
2022-10-13T00:36:30.706Z,7.68
2022-10-13T00:39:01.500Z,7.67
2022-10-13T00:41:28.357Z,7.68
2022-10-13T00:44:04.347Z,7.69
2022-10-13T00:46:37.271Z,7.69
2022-10-13T00:49:14.367Z,7.69
2022-10-13T00:51:51.841Z,7.69
2022-10-13T00:54:24.612Z,7.67
2022-10-13T00:56:54.193Z,7.69
2022-10-13T00:59:28.992Z,7.68
2022-10-13T01:01:59.637Z,7.68
2022-10-13T01:04:37.261Z,7.71
2022-10-13T01:07:06.540Z,7.72
2022-10-13T01:09:37.705Z,7.72
2022-10-13T01:12:55.509Z,7.72
2022-10-13T01:15:58.825Z,7.72
2022-10-13T01:19:10.145Z,7.72
2022-10-13T01:21:51.982Z,7.65
2022-10-13T01:24:46.820Z,7.60
2022-10-13T01:27:45.496Z,7.56
2022-10-13T01:30:20.991Z,7.54
2022-10-13T01:33:30.483Z,7.50
2022-10-13T01:36:47.597Z,7.48
2022-10-13T01:39:35.239Z,7.46
2022-10-13T01:42:18.394Z,7.46
2022-10-13T01:45:02.450Z,7.48
2022-10-13T01:47:35.224Z,7.45
2022-10-13T01:50:04.516Z,7.51
2022-10-13T01:52:39.209Z,7.55
2022-10-13T01:55:11.825Z,7.56
2022-10-13T01:57:45.581Z,7.56
2022-10-13T02:00:23.376Z,7.54
2022-10-13T02:03:16.359Z,7.54
2022-10-13T02:06:18.322Z,7.53
2022-10-13T02:08:57.364Z,7.49
2022-10-13T02:11:25.491Z,7.48
2022-10-13T02:14:27.812Z,7.43
2022-10-13T02:17:00.162Z,7.37
2022-10-13T02:19:29.996Z,7.31
2022-10-13T02:22:00.226Z,7.31
2022-10-13T02:24:27.196Z,7.28
2022-10-13T02:26:54.429Z,7.25
2022-10-13T02:29:21.915Z,7.20
2022-10-13T02:31:48.592Z,7.14
2022-10-13T02:34:15.911Z,7.09
2022-10-13T02:36:42.707Z,6.97
2022-10-13T02:39:11.121Z,6.99
2022-10-13T02:41:38.552Z,6.98
2022-10-13T02:44:06.952Z,6.89
2022-10-13T02:46:34.146Z,6.75
2022-10-13T02:49:03.826Z,6.62
2022-10-13T02:51:30.535Z,6.49
2022-10-13T02:53:57.214Z,6.34
2022-10-13T02:56:26.590Z,6.23
2022-10-13T02:58:53.675Z,6.11
2022-10-13T03:01:20.367Z,6.02
2022-10-13T03:03:47.198Z,5.93
2022-10-13T03:06:13.797Z,5.91
2022-10-13T03:08:40.521Z,5.90
2022-10-13T03:11:07.310Z,5.81
2022-10-13T03:13:34.051Z,5.77
2022-10-13T03:16:00.688Z,5.76
2022-10-13T03:18:27.369Z,5.77
2022-10-13T03:21:06.544Z,5.70
2022-10-13T03:23:33.773Z,5.70
2022-10-13T03:26:00.542Z,5.70
2022-10-13T03:28:27.695Z,5.71
2022-10-13T03:31:08.563Z,5.88
2022-10-13T03:33:35.438Z,6.03
2022-10-13T03:36:07.446Z,6.04
2022-10-13T03:38:36.001Z,6.00
2022-10-13T03:41:09.732Z,6.10
2022-10-13T03:43:36.775Z,6.07
2022-10-13T03:46:07.059Z,5.95
2022-10-13T03:48:36.480Z,5.94
2022-10-13T03:51:10.796Z,5.96
2022-10-13T04:18:03.039Z,6.82
2022-10-13T04:20:29.958Z,6.88
2022-10-13T05:14:02.366Z,6.49
2022-10-13T05:16:30.889Z,6.51
2022-10-13T05:18:57.782Z,6.53
2022-10-13T05:29:36.592Z,6.43
2022-10-13T05:32:04.205Z,6.45
2022-10-13T05:34:31.253Z,6.49
2022-10-13T05:36:58.730Z,6.47
2022-10-13T05:39:25.832Z,6.51
2022-10-13T05:41:52.693Z,6.51
2022-10-13T05:47:07.236Z,6.54
2022-10-13T06:16:52.891Z,6.86
2022-10-13T06:24:44.069Z,7.11
2022-10-13T06:27:11.452Z,7.19
2022-10-13T06:29:38.307Z,7.25
2022-10-13T06:32:08.556Z,7.29
2022-10-13T06:34:35.273Z,7.36
2022-10-13T06:37:01.980Z,7.42
2022-10-13T06:39:28.652Z,7.51
2022-10-13T06:41:55.408Z,7.58
2022-10-13T06:44:22.079Z,7.64
2022-10-13T06:46:48.950Z,7.74
2022-10-13T06:49:16.028Z,7.81
2022-10-13T06:51:42.800Z,7.89
2022-10-13T06:54:09.534Z,8.01
2022-10-13T06:56:36.293Z,8.11
2022-10-13T06:59:03.089Z,8.21
2022-10-13T07:01:29.762Z,8.31
2022-10-13T07:03:56.425Z,8.38
2022-10-13T07:06:23.629Z,8.46
2022-10-13T07:08:50.466Z,8.47
2022-10-13T07:11:18.539Z,8.54
2022-10-13T07:13:47.093Z,8.61
2022-10-13T07:16:16.855Z,8.71
2022-10-13T07:18:43.748Z,8.77
2022-10-13T07:21:10.408Z,8.80
2022-10-13T07:23:37.111Z,8.87
2022-10-13T07:26:14.693Z,8.83
2022-10-13T07:28:43.720Z,8.80
2022-10-13T07:31:21.535Z,8.87
2022-10-13T07:33:51.667Z,8.96
2022-10-13T07:36:19.263Z,9.08
2022-10-13T07:38:53.995Z,9.35
2022-10-13T07:41:20.851Z,9.49
2022-10-13T07:43:47.754Z,9.64
2022-10-13T07:46:16.023Z,9.66
2022-10-13T07:48:48.655Z,9.59
2022-10-13T07:51:18.607Z,9.79
2022-10-13T07:53:50.523Z,10.21
2022-10-13T07:56:17.389Z,10.53
2022-10-13T07:58:47.762Z,10.78
2022-10-13T08:01:18.052Z,10.74
2022-10-13T08:03:49.830Z,10.86
2022-10-13T08:06:18.676Z,10.84
2022-10-13T08:08:48.080Z,10.88
2022-10-13T08:11:17.287Z,10.96
2022-10-13T08:13:52.492Z,10.94
2022-10-13T08:16:20.035Z,10.84
2022-10-13T08:18:48.462Z,10.71
2022-10-13T08:24:17.967Z,10.58
2022-10-13T08:26:47.120Z,10.67
2022-10-13T08:29:22.041Z,10.74
2022-10-13T08:31:56.157Z,10.72
2022-10-13T08:34:24.272Z,10.76
2022-10-13T08:36:56.298Z,10.81
2022-10-13T08:39:25.216Z,10.73
2022-10-13T08:41:55.587Z,10.80
2022-10-13T08:47:51.122Z,10.96
2022-10-13T08:50:28.832Z,11.25
2022-10-13T08:53:42.611Z,11.56
2022-10-13T08:56:23.237Z,11.85
2022-10-13T08:58:54.419Z,11.98
2022-10-13T09:01:32.782Z,11.88
2022-10-13T09:04:41.592Z,11.87
2022-10-13T09:07:46.369Z,11.78
2022-10-13T09:10:16.585Z,11.67
2022-10-13T09:12:43.642Z,11.53
2022-10-13T09:15:12.744Z,11.64
2022-10-13T09:17:41.757Z,11.78
2022-10-13T09:20:27.564Z,11.88
2022-10-13T09:23:07.901Z,12.09
2022-10-13T09:25:47.694Z,12.26
2022-10-13T09:28:29.199Z,12.33
2022-10-13T09:31:18.529Z,12.37
2022-10-13T09:34:17.347Z,12.45
2022-10-13T09:37:06.431Z,12.75
2022-10-13T09:39:34.443Z,12.79
2022-10-13T09:42:27.928Z,12.81
2022-10-13T09:45:12.109Z,12.73
2022-10-13T09:47:40.246Z,12.60
2022-10-13T09:50:23.168Z,12.48
2022-10-13T09:52:52.566Z,12.33
2022-10-13T09:55:37.267Z,12.21
2022-10-13T09:58:22.875Z,12.25
2022-10-13T10:00:52.590Z,12.09
2022-10-13T10:03:35.497Z,12.17
2022-10-13T10:09:42.000Z,12.25
2022-10-13T10:12:23.007Z,12.41
2022-10-13T10:14:53.668Z,12.42
2022-10-13T10:17:43.624Z,12.44
2022-10-13T10:21:11.344Z,12.19
2022-10-13T10:23:57.717Z,12.40
2022-10-13T10:26:53.377Z,12.37
2022-10-13T10:29:54.073Z,12.42
2022-10-13T10:32:59.087Z,12.44
2022-10-13T10:36:37.561Z,12.38
2022-10-13T10:39:40.885Z,12.25
2022-10-13T10:42:41.814Z,12.22
2022-10-13T10:45:26.246Z,12.14
2022-10-13T10:48:07.101Z,12.11
2022-10-13T10:50:35.521Z,12.01
2022-10-13T10:53:31.594Z,11.93
2022-10-13T10:56:42.492Z,11.84
2022-10-13T10:59:51.760Z,11.91
2022-10-13T11:03:04.986Z,11.80
2022-10-13T11:05:57.134Z,11.82
2022-10-13T11:22:32.268Z,12.49
2022-10-13T11:25:41.806Z,12.63
2022-10-13T11:36:56.127Z,12.57
2022-10-13T11:45:40.448Z,12.88
2022-10-13T11:49:10.432Z,13.10
2022-10-13T11:53:00.818Z,13.31
2022-10-13T11:55:58.614Z,13.29
2022-10-13T11:58:32.233Z,13.36
2022-10-13T12:01:12.974Z,13.35
2022-10-13T12:03:52.541Z,13.44
2022-10-13T12:06:33.735Z,13.42
2022-10-13T12:09:21.897Z,13.40
2022-10-13T12:12:16.025Z,13.31
2022-10-13T12:14:52.012Z,13.37
2022-10-13T12:17:39.058Z,13.41
2022-10-13T12:20:28.580Z,13.59
2022-10-13T12:22:57.362Z,13.72
2022-10-13T12:25:30.391Z,13.81
2022-10-13T12:28:01.049Z,13.98
2022-10-13T12:30:36.340Z,14.07
2022-10-13T12:33:21.434Z,14.32
2022-10-13T12:35:48.234Z,14.30
2022-10-13T12:38:22.380Z,14.18
2022-10-13T12:40:54.376Z,14.03
2022-10-13T12:43:25.459Z,13.79
2022-10-13T12:45:52.639Z,13.75
2022-10-13T12:48:38.373Z,13.71
2022-10-13T12:51:27.967Z,13.62
2022-10-13T12:53:55.302Z,13.49
2022-10-13T12:56:33.034Z,13.49
2022-10-13T12:59:03.769Z,13.52
2022-10-13T13:01:35.680Z,13.45
2022-10-13T13:04:28.644Z,13.39
2022-10-13T13:07:06.213Z,13.32
2022-10-13T13:09:39.756Z,13.23
2022-10-13T13:12:12.542Z,13.25
2022-10-13T13:14:54.661Z,13.11
2022-10-13T13:17:56.684Z,13.19
2022-10-13T13:20:38.071Z,13.15
2022-10-13T13:23:05.651Z,13.19
2022-10-13T13:25:32.429Z,13.26
2022-10-13T13:27:59.101Z,13.30
2022-10-13T13:30:26.768Z,13.27
2022-10-13T13:32:53.849Z,13.33
2022-10-13T13:46:32.351Z,13.16
2022-10-13T13:48:59.668Z,13.15
2022-10-13T13:51:26.407Z,13.08
2022-10-13T13:53:53.356Z,12.97
2022-10-13T13:56:21.182Z,12.95
2022-10-13T13:58:48.702Z,12.87
2022-10-13T14:01:16.006Z,12.90
2022-10-13T14:03:45.637Z,12.88
2022-10-13T14:06:21.363Z,12.91
2022-10-13T14:38:24.818Z,12.59
2022-10-13T14:43:33.494Z,12.62
2022-10-13T14:46:06.668Z,12.60
2022-10-13T15:04:48.111Z,12.44
2022-10-13T16:09:17.961Z,11.78
2022-10-13T16:17:07.208Z,11.65
2022-10-13T16:19:36.713Z,11.64
2022-10-13T16:44:05.892Z,11.43
2022-10-13T16:49:23.532Z,11.44
2022-10-13T16:52:00.678Z,11.39
2022-10-13T16:54:27.698Z,11.37
2022-10-13T16:56:56.720Z,11.37
2022-10-13T16:59:23.566Z,11.39
2022-10-13T17:02:05.120Z,11.38
2022-10-13T17:13:01.477Z,11.36
2022-10-13T17:21:05.396Z,11.36
2022-10-13T17:34:20.013Z,11.32
2022-10-13T19:48:43.464Z,11.48
2022-10-13T20:42:20.799Z,11.55
2022-10-13T20:44:47.497Z,11.51
2022-10-13T20:47:14.124Z,11.53
2022-10-13T20:49:40.923Z,11.48
2022-10-13T20:52:07.607Z,11.46
2022-10-13T20:54:34.250Z,11.40
2022-10-13T20:57:00.986Z,11.35
2022-10-13T20:59:27.748Z,11.30
2022-10-13T21:01:54.473Z,11.29
2022-10-13T21:04:21.489Z,11.30
2022-10-13T21:06:48.799Z,11.36
2022-10-13T21:09:15.698Z,11.40
2022-10-13T21:11:42.409Z,11.41
2022-10-13T21:14:10.419Z,11.46
2022-10-13T21:16:38.361Z,11.52
2022-10-13T21:19:05.252Z,11.55
2022-10-13T21:21:35.049Z,11.56
2022-10-13T21:24:06.987Z,11.61
2022-10-13T21:26:35.360Z,11.61
2022-10-13T21:29:02.823Z,11.63
2022-10-13T21:31:30.545Z,11.62
2022-10-13T21:33:57.963Z,11.65
2022-10-13T21:36:30.465Z,11.67
2022-10-13T21:39:05.379Z,11.67
2022-10-13T21:41:32.308Z,11.68
2022-10-13T21:43:58.997Z,11.67
2022-10-13T21:46:30.811Z,11.65
2022-10-13T21:49:02.743Z,11.67
2022-10-13T21:51:37.601Z,11.66
2022-10-13T21:54:13.029Z,11.66
2022-10-13T21:56:46.146Z,11.67
2022-10-13T21:59:15.717Z,11.64
2022-10-13T22:01:46.478Z,11.66
2022-10-13T22:04:15.195Z,11.69
2022-10-13T22:06:43.356Z,11.70
2022-10-13T22:09:10.363Z,11.71
2022-10-13T22:11:39.267Z,11.76
2022-10-13T22:14:07.093Z,11.72
2022-10-13T22:16:40.943Z,11.73
2022-10-13T22:19:08.376Z,11.70
2022-10-13T22:21:44.696Z,11.71
2022-10-13T22:24:18.139Z,11.71
2022-10-13T22:26:48.052Z,11.70
2022-10-13T22:29:20.171Z,11.70
2022-10-13T22:31:48.049Z,11.69
2022-10-13T22:34:16.706Z,11.70
2022-10-13T22:36:44.992Z,11.67
2022-10-13T22:39:13.902Z,11.66
2022-10-13T22:41:41.472Z,11.64
2022-10-13T22:44:08.634Z,11.64
2022-10-13T22:46:38.457Z,11.59
2022-10-13T22:49:08.383Z,11.57
2022-10-13T22:51:36.910Z,11.59
2022-10-13T22:54:05.635Z,11.58
2022-10-13T22:56:34.907Z,11.57
2022-10-13T22:59:11.439Z,11.61
2022-10-13T23:01:38.217Z,11.59
2022-10-13T23:04:06.047Z,11.61
2022-10-13T23:06:36.500Z,11.60
2022-10-13T23:09:10.378Z,11.61
2022-10-13T23:11:37.330Z,11.60
2022-10-13T23:14:04.737Z,11.61
2022-10-13T23:16:32.027Z,11.60
2022-10-13T23:19:01.839Z,11.58
2022-10-13T23:21:31.121Z,11.58
2022-10-13T23:24:03.200Z,11.59
2022-10-13T23:26:31.385Z,11.59
2022-10-13T23:29:02.769Z,11.57
2022-10-13T23:31:29.711Z,11.56
2022-10-13T23:33:59.571Z,11.56
2022-10-13T23:36:41.803Z,11.56
2022-10-13T23:39:10.753Z,11.53
2022-10-13T23:41:38.713Z,11.54
2022-10-13T23:44:06.016Z,11.55
2022-10-13T23:46:32.798Z,11.54
2022-10-13T23:48:59.772Z,11.56
2022-10-13T23:51:26.996Z,11.59
2022-10-13T23:53:55.698Z,11.56
2022-10-13T23:56:23.666Z,11.57
2022-10-13T23:58:50.802Z,11.57
